Time;durP1;ratioP1;P1;durP2;ratioP2;P2;SDS_P1;SDS_P2;PMS_P1;PMS_P2;Temp;Humidity;BMP_temperature;BMP_pressure;BME280_temperature;BME280_humidity;BME280_pressure;Samples;Min_cycle;Max_cycle;Signal;HPM_P1;HPM_P2
2023/01/11 00:00:47;;;;;;;1.00;1.00;;;;;;;6.44;87.61;100150.63;5061418;28;20205;-81
2023/01/11 00:03:14;;;;;;;1.77;0.90;;;;;;;6.45;87.77;100164.44;5061365;28;20225;-83
2023/01/11 00:05:41;;;;;;;1.30;1.00;;;;;;;6.49;87.59;100160.97;5061744;28;20237;-81
2023/01/11 00:08:08;;;;;;;2.03;1.03;;;;;;;6.38;87.38;100163.59;5060909;28;20232;-82
2023/01/11 00:10:35;;;;;;;2.13;1.00;;;;;;;6.47;87.70;100160.13;5061215;28;20604;-83
2023/01/11 00:13:02;;;;;;;1.97;1.20;;;;;;;6.49;87.51;100153.19;5072553;28;20193;-81
2023/01/11 00:15:29;;;;;;;1.20;1.10;;;;;;;6.46;87.12;100161.84;5081076;28;20239;-82
2023/01/11 00:17:57;;;;;;;1.47;1.10;;;;;;;6.43;86.52;100161.00;5080048;28;20204;-81
2023/01/11 00:20:23;;;;;;;2.97;1.10;;;;;;;6.46;86.40;100154.06;5079569;28;20235;-82
2023/01/11 00:22:50;;;;;;;2.97;1.00;;;;;;;6.42;86.88;100154.09;5079479;28;20231;-82
2023/01/11 00:25:16;;;;;;;1.27;1.00;;;;;;;6.38;87.69;100154.97;5080496;28;20236;-81
2023/01/11 00:27:43;;;;;;;2.30;1.13;;;;;;;6.41;87.13;100135.09;5079862;28;20208;-83
2023/01/11 00:30:10;;;;;;;2.70;1.10;;;;;;;6.46;86.64;100138.53;5078884;28;20231;-81
2023/01/11 00:32:36;;;;;;;2.60;1.60;;;;;;;6.55;86.83;100142.78;5080051;28;20254;-83
2023/01/11 00:35:05;;;;;;;1.90;1.10;;;;;;;6.59;86.00;100147.06;5080450;28;20232;-82
2023/01/11 00:37:31;;;;;;;3.13;1.00;;;;;;;6.67;86.34;100150.44;5080612;28;20258;-83
2023/01/11 00:39:58;;;;;;;2.00;1.10;;;;;;;6.66;86.01;100150.44;5077480;28;20209;-80
2023/01/11 00:48:00;;;;;;;1.43;0.90;;;;;;;6.54;86.39;100128.94;5039190;28;20213;-82
2023/01/11 00:50:30;;;;;;;2.50;1.90;;;;;;;6.66;86.40;100134.88;5040623;28;20339;-82
2023/01/11 00:52:56;;;;;;;3.60;1.00;;;;;;;6.73;86.63;100118.41;5044455;28;20206;-82
2023/01/11 00:55:24;;;;;;;0.97;0.70;;;;;;;6.66;86.03;100130.59;5043484;28;20249;-82
2023/01/11 00:57:50;;;;;;;3.90;0.90;;;;;;;6.68;86.30;100135.75;5043866;28;20212;-82
2023/01/11 01:00:17;;;;;;;2.40;0.80;;;;;;;6.70;87.42;100108.94;5042529;28;20217;-81
2023/01/11 01:02:44;;;;;;;4.23;0.97;;;;;;;6.73;87.34;100088.16;5043647;28;20226;-82
2023/01/11 01:05:10;;;;;;;1.40;0.97;;;;;;;6.72;87.83;100078.66;5043140;28;20225;-82
2023/01/11 01:07:38;;;;;;;1.43;0.87;;;;;;;6.72;87.60;100086.44;5044144;28;20209;-83
2023/01/11 01:10:06;;;;;;;1.97;0.80;;;;;;;6.79;88.46;100079.44;5045230;28;20736;-82
2023/01/11 01:15:18;;;;;;;2.23;0.87;;;;;;;6.69;86.83;100099.41;5083580;28;20251;-80
2023/01/11 01:17:45;;;;;;;2.97;1.10;;;;;;;6.71;87.81;100081.25;5083243;28;20212;-83
2023/01/11 01:20:12;;;;;;;2.40;1.10;;;;;;;6.67;87.83;100088.19;5083395;28;20691;-82
2023/01/11 01:22:40;;;;;;;2.67;0.80;;;;;;;6.71;87.72;100082.13;5083960;28;20637;-81
2023/01/11 01:25:07;;;;;;;1.10;1.00;;;;;;;6.74;88.33;100083.84;5083873;28;20228;-83
2023/01/11 01:27:33;;;;;;;2.10;1.03;;;;;;;6.74;87.15;100092.47;5083469;28;20221;-82
2023/01/11 01:29:59;;;;;;;1.30;1.00;;;;;;;6.68;87.74;100108.09;5084002;28;20201;-82
2023/01/11 01:32:26;;;;;;;1.77;0.83;;;;;;;6.67;88.18;100101.16;5084925;28;20615;-83
2023/01/11 01:34:52;;;;;;;1.37;0.83;;;;;;;6.73;88.92;100085.56;5084571;28;20289;-81
2023/01/11 01:37:18;;;;;;;1.90;0.80;;;;;;;6.74;88.32;100076.06;5084277;28;20217;-83
2023/01/11 01:39:46;;;;;;;1.60;0.83;;;;;;;6.75;88.73;100076.03;5084037;28;20233;-84
2023/01/11 01:42:14;;;;;;;1.77;0.70;;;;;;;6.61;89.28;100071.84;5076173;28;20760;-82
2023/01/11 01:45:01;;;;;;;2.47;0.90;;;;;;;6.56;90.48;100030.38;5073704;28;20222;-82
2023/01/11 01:47:34;;;;;;;1.50;0.90;;;;;;;6.71;90.05;100019.00;5073153;28;20235;-83
2023/01/11 01:50:04;;;;;;;3.20;1.20;;;;;;;6.72;90.42;99998.25;5067695;28;20726;-81
2023/01/11 01:52:32;;;;;;;2.07;0.90;;;;;;;6.81;90.33;100001.63;5065960;28;20249;-81
2023/01/11 01:55:07;;;;;;;2.23;1.10;;;;;;;6.87;89.30;100005.00;5061942;28;20225;-80
2023/01/11 01:57:39;;;;;;;2.93;1.00;;;;;;;6.71;89.38;100017.28;5060931;28;20282;-82
2023/01/11 02:00:08;;;;;;;1.77;0.90;;;;;;;6.58;90.03;100002.72;5060910;28;20260;-82
2023/01/11 02:02:36;;;;;;;1.50;1.20;;;;;;;6.72;90.87;99980.09;5060842;28;20256;-82
2023/01/11 02:05:04;;;;;;;1.40;0.83;;;;;;;6.68;90.00;99985.31;5061267;28;20264;-81
2023/01/11 02:07:33;;;;;;;1.37;0.90;;;;;;;6.79;90.08;99977.44;5061495;28;20747;-81
2023/01/11 02:10:06;;;;;;;2.47;0.90;;;;;;;6.83;89.04;99995.53;5061136;28;20207;-80
2023/01/11 02:12:37;;;;;;;0.70;0.70;;;;;;;6.88;88.29;100009.31;5069567;28;20200;-82
2023/01/11 02:15:05;;;;;;;2.03;1.37;;;;;;;6.85;88.75;100011.09;5081313;28;20251;-83
2023/01/11 02:17:31;;;;;;;1.73;1.07;;;;;;;6.72;89.96;100002.59;5081494;28;20209;-81
2023/01/11 02:20:05;;;;;;;2.00;0.80;;;;;;;6.79;90.02;99986.06;5080937;28;20256;-82
2023/01/11 02:23:28;;;;;;;2.33;0.80;;;;;;;6.84;89.59;99986.00;5081565;28;20771;-82
2023/01/11 02:26:33;;;;;;;2.47;0.70;;;;;;;6.88;89.79;99985.13;5061045;28;20224;-80
2023/01/11 02:29:09;;;;;;;1.87;1.00;;;;;;;6.95;89.20;99982.41;5073508;28;20206;-81
2023/01/11 02:31:44;;;;;;;1.37;0.73;;;;;;;6.87;89.27;99967.81;5075003;28;20216;-80
2023/01/11 02:34:26;;;;;;;1.30;0.63;;;;;;;6.86;90.47;99963.53;5075160;28;20203;-81
2023/01/11 02:37:03;;;;;;;2.87;0.90;;;;;;;6.86;89.98;99929.81;5075051;28;20208;-81
2023/01/11 02:39:37;;;;;;;1.57;0.70;;;;;;;6.95;90.59;99911.50;5074616;28;20264;-83
2023/01/11 02:45:04;;;;;;;1.37;0.70;;;;;;;6.99;90.32;99896.75;5074731;28;20240;-80
2023/01/11 02:47:38;;;;;;;0.63;0.60;;;;;;;6.97;90.32;99902.81;5074803;28;20233;-80
2023/01/11 02:50:13;;;;;;;1.40;0.70;;;;;;;6.89;90.92;99889.09;5074662;28;20193;-80
2023/01/11 02:52:46;;;;;;;1.10;0.80;;;;;;;6.92;90.89;99883.03;5074731;28;20201;-81
2023/01/11 02:55:16;;;;;;;2.43;0.70;;;;;;;6.92;91.39;99878.69;5083159;28;20232;-82
2023/01/11 02:57:46;;;;;;;2.00;0.80;;;;;;;7.02;91.05;99871.66;5091811;28;20208;-82
2023/01/11 03:00:16;;;;;;;1.43;0.90;;;;;;;7.01;91.23;99882.03;5094309;28;20315;-81
2023/01/11 03:02:43;;;;;;;1.53;0.80;;;;;;;7.10;90.66;99877.59;5094160;28;20228;-80
2023/01/11 03:05:12;;;;;;;1.60;0.90;;;;;;;7.09;90.79;99868.06;5093642;28;20302;-80
2023/01/11 03:07:52;;;;;;;2.73;0.70;;;;;;;7.15;90.21;99880.09;5093086;28;20209;-80
2023/01/11 03:10:30;;;;;;;1.20;0.73;;;;;;;7.13;90.62;99894.84;5093969;28;20363;-82
2023/01/11 03:13:07;;;;;;;0.80;0.80;;;;;;;7.16;90.61;99874.91;5085365;28;20205;-83
2023/01/11 03:16:09;;;;;;;1.60;0.90;;;;;;;7.11;90.35;99871.50;5084371;28;20224;-83
2023/01/11 03:18:48;;;;;;;2.43;1.17;;;;;;;7.14;90.21;99875.81;5078901;28;20262;-83
2023/01/11 03:21:27;;;;;;;2.00;1.00;;;;;;;7.18;89.91;99867.09;5084271;28;20671;-83
2023/01/11 03:24:04;;;;;;;1.70;1.07;;;;;;;7.09;90.66;99864.63;5081078;28;20224;-82
2023/01/11 03:26:37;;;;;;;1.53;0.87;;;;;;;7.24;90.65;99855.78;5074657;28;20200;-82
2023/01/11 03:29:13;;;;;;;2.57;1.40;;;;;;;7.24;89.87;99850.59;5083275;28;20299;-82
2023/01/11 03:31:50;;;;;;;1.63;0.90;;;;;;;7.28;90.15;99857.44;5083254;28;20255;-81
2023/01/11 03:34:21;;;;;;;1.30;0.80;;;;;;;7.25;89.46;99860.91;5082857;28;20247;-83
2023/01/11 03:36:52;;;;;;;1.13;0.90;;;;;;;7.31;89.62;99863.44;5083187;28;20209;-82
2023/01/11 03:39:25;;;;;;;1.97;1.87;;;;;;;7.21;90.08;99871.38;5083382;28;20236;-83
2023/01/11 03:41:57;;;;;;;1.03;0.80;;;;;;;7.21;89.70;99858.41;5082893;28;20663;-82
2023/01/11 03:44:25;;;;;;;1.37;0.90;;;;;;;7.23;89.99;99851.44;5083121;28;20259;-83
2023/01/11 03:46:56;;;;;;;1.80;0.90;;;;;;;7.24;90.14;99841.03;5073055;28;20201;-82
2023/01/11 03:49:31;;;;;;;1.33;0.77;;;;;;;7.34;90.44;99839.16;5078554;28;20697;-83
2023/01/11 03:52:01;;;;;;;1.40;1.13;;;;;;;7.39;90.16;99845.13;5082125;28;20205;-83
2023/01/11 03:54:30;;;;;;;1.70;1.00;;;;;;;7.36;90.17;99840.84;5080023;28;20224;-83
2023/01/11 03:57:03;;;;;;;1.27;0.80;;;;;;;7.41;89.58;99835.56;5066992;28;20262;-83
2023/01/11 03:59:29;;;;;;;2.07;1.07;;;;;;;7.36;89.52;99838.25;5082787;28;20205;-81
2023/01/11 04:01:57;;;;;;;0.90;0.80;;;;;;;7.35;90.14;99814.91;5081300;28;20567;-83
2023/01/11 04:04:24;;;;;;;0.80;0.80;;;;;;;7.42;89.83;99808.75;5070495;28;20247;-82
2023/01/11 04:06:50;;;;;;;2.10;0.90;;;;;;;7.42;89.81;99816.53;5082093;28;20231;-81
2023/01/11 04:09:17;;;;;;;0.90;0.90;;;;;;;7.46;90.40;99813.00;5082475;28;20262;-83
2023/01/11 04:11:43;;;;;;;1.07;0.93;;;;;;;7.54;90.12;99828.47;5081053;28;20205;-82
2023/01/11 04:14:10;;;;;;;2.87;1.10;;;;;;;7.59;88.95;99833.56;5081836;28;20203;-81
2023/01/11 04:16:36;;;;;;;2.17;1.13;;;;;;;7.61;88.63;99839.59;5073833;28;20212;-82
2023/01/11 04:19:04;;;;;;;1.20;1.10;;;;;;;7.58;89.32;99832.72;5074749;28;20231;-82
2023/01/11 04:21:30;;;;;;;2.63;1.10;;;;;;;7.64;88.90;99832.63;5081863;28;20228;-82
2023/01/11 04:23:57;;;;;;;1.67;1.10;;;;;;;7.48;89.28;99832.00;5082059;28;20228;-82
2023/01/11 04:26:23;;;;;;;1.00;0.90;;;;;;;7.55;88.85;99823.25;5081361;28;20212;-83
2023/01/11 04:28:49;;;;;;;1.73;1.07;;;;;;;7.51;89.32;99825.91;5081365;28;20204;-81
2023/01/11 04:31:16;;;;;;;1.50;1.17;;;;;;;7.56;89.10;99826.69;5081256;28;20208;-82
2023/01/11 04:33:42;;;;;;;1.73;1.10;;;;;;;7.51;89.24;99825.91;5081502;28;20209;-81
2023/01/11 04:36:11;;;;;;;1.97;1.23;;;;;;;7.47;89.89;99813.84;5081375;28;20247;-82
2023/01/11 04:38:37;;;;;;;1.73;1.07;;;;;;;7.37;90.22;99823.53;5081771;28;20227;-81
2023/01/11 04:43:48;;;;;;;2.53;1.03;;;;;;;7.58;89.72;99796.38;5079980;28;20227;-81
2023/01/11 04:46:14;;;;;;;1.27;1.10;;;;;;;7.53;89.88;99811.16;5081271;28;20257;-82
2023/01/11 04:48:41;;;;;;;1.47;0.90;;;;;;;7.60;89.90;99812.78;5080917;28;20204;-81
2023/01/11 04:51:09;;;;;;;1.17;1.03;;;;;;;7.51;90.96;99807.72;5080544;28;20204;-81
2023/01/11 04:53:36;;;;;;;1.37;1.17;;;;;;;7.54;91.04;99802.50;5080714;28;20224;-81
2023/01/11 04:56:04;;;;;;;1.90;1.00;;;;;;;7.59;91.02;99776.44;5079196;28;20284;-82
2023/01/11 04:58:32;;;;;;;1.77;0.90;;;;;;;7.66;91.06;99776.31;5080107;28;20237;-83
2023/01/11 05:00:58;;;;;;;1.13;0.90;;;;;;;7.61;90.93;99772.94;5080207;28;20208;-82
2023/01/11 05:03:24;;;;;;;1.57;1.00;;;;;;;7.73;90.67;99775.31;5074852;28;20233;-82
2023/01/11 05:05:57;;;;;;;0.93;0.80;;;;;;;7.74;90.24;99781.38;5070790;28;20266;-81
2023/01/11 05:08:25;;;;;;;2.50;0.80;;;;;;;7.72;91.42;99777.94;5080004;28;20208;-81
2023/01/11 05:10:53;;;;;;;1.03;0.93;;;;;;;7.74;90.82;99792.59;5080060;28;20204;-81
2023/01/11 05:13:19;;;;;;;1.73;0.90;;;;;;;7.74;91.08;99786.56;5080265;28;20260;-82
2023/01/11 05:15:46;;;;;;;0.80;0.80;;;;;;;7.75;91.31;99788.28;5079703;28;20220;-81
2023/01/11 05:18:12;;;;;;;1.70;0.90;;;;;;;7.85;91.13;99786.34;5080208;28;20758;-82
2023/01/11 05:20:38;;;;;;;1.23;0.80;;;;;;;7.83;91.42;99786.41;5079415;28;20261;-80
2023/01/11 05:23:05;;;;;;;1.57;0.80;;;;;;;7.90;91.21;99784.53;5080662;28;20243;-82
2023/01/11 05:25:32;;;;;;;1.53;0.80;;;;;;;7.91;91.18;99776.72;5080282;28;20254;-80
2023/01/11 05:27:59;;;;;;;0.90;0.90;;;;;;;7.93;91.61;99774.94;5079451;28;20282;-81
2023/01/11 05:30:25;;;;;;;0.97;0.60;;;;;;;7.91;91.47;99774.13;5079644;28;20239;-82
2023/01/11 05:32:51;;;;;;;1.10;0.70;;;;;;;7.94;91.58;99787.03;5080848;28;20708;-81
2023/01/11 05:35:18;;;;;;;0.73;0.70;;;;;;;7.83;92.96;99762.13;5089214;22;21140;-76
2023/01/11 05:37:44;;;;;;;0.73;0.70;;;;;;;7.81;93.51;99724.94;5053102;28;20217;-76
2023/01/11 05:40:11;;;;;;;1.03;0.67;;;;;;;7.87;93.90;99720.50;5054266;28;20213;-76
2023/01/11 05:42:39;;;;;;;0.50;0.50;;;;;;;7.83;94.31;99695.47;5054387;28;20680;-77
2023/01/11 05:47:52;;;;;;;1.03;0.60;;;;;;;7.89;94.09;99691.91;5054600;28;20212;-76
2023/01/11 05:50:19;;;;;;;0.70;0.70;;;;;;;7.96;94.56;99680.47;5054200;28;20267;-76
2023/01/11 05:52:46;;;;;;;1.10;0.80;;;;;;;7.98;94.07;99686.50;5053972;28;20584;-77
2023/01/11 05:55:12;;;;;;;1.53;0.60;;;;;;;7.94;94.68;99680.50;5061527;28;20225;-77
2023/01/11 05:57:41;;;;;;;1.70;0.70;;;;;;;7.99;94.22;99672.63;5072234;28;20205;-77
2023/01/11 06:00:10;;;;;;;0.73;0.70;;;;;;;7.98;94.75;99677.84;5074128;28;20212;-76
2023/01/11 06:02:36;;;;;;;1.10;0.70;;;;;;;7.98;94.34;99673.50;5074310;28;20282;-76
2023/01/11 06:05:03;;;;;;;0.80;0.80;;;;;;;7.96;95.00;99668.31;5074324;28;20236;-77
2023/01/11 06:07:29;;;;;;;0.50;0.50;;;;;;;7.94;93.81;99674.44;5074104;28;20208;-77
2023/01/11 06:09:55;;;;;;;1.00;0.57;;;;;;;7.99;93.80;99675.22;5065276;28;20204;-77
2023/01/11 06:12:22;;;;;;;0.50;0.43;;;;;;;8.03;93.63;99674.28;5065566;28;20721;-76
2023/01/11 06:14:49;;;;;;;0.50;0.50;;;;;;;8.01;93.37;99691.66;5074198;28;20204;-77
2023/01/11 06:17:16;;;;;;;0.97;0.40;;;;;;;8.06;93.67;99699.34;5074347;28;20211;-76
2023/01/11 06:19:42;;;;;;;1.23;0.50;;;;;;;8.11;93.10;99707.91;5074106;28;20208;-76
2023/01/11 06:22:08;;;;;;;1.00;0.60;;;;;;;8.07;93.19;99716.66;5073838;28;20204;-76
2023/01/11 06:24:35;;;;;;;1.07;0.97;;;;;;;8.13;93.21;99708.72;5073386;28;20770;-76
2023/01/11 06:27:01;;;;;;;2.03;0.70;;;;;;;8.14;94.06;99708.69;5073702;28;20266;-77
2023/01/11 06:29:27;;;;;;;1.60;0.70;;;;;;;8.06;95.29;99686.34;5073596;28;20262;-76
2023/01/11 06:31:56;;;;;;;1.03;0.47;;;;;;;8.08;95.87;99662.03;5073444;28;20204;-76
2023/01/11 06:34:23;;;;;;;1.27;0.57;;;;;;;8.00;96.83;99632.75;5073767;28;20208;-77
2023/01/11 06:36:49;;;;;;;0.50;0.50;;;;;;;8.02;98.13;99596.34;5073595;28;20233;-77
2023/01/11 06:39:16;;;;;;;0.53;0.53;;;;;;;7.96;98.01;99595.56;5067498;28;20213;-77
2023/01/11 06:41:42;;;;;;;0.50;0.40;;;;;;;7.98;99.15;99571.31;5063191;28;20679;-77
2023/01/11 06:44:08;;;;;;;0.63;0.53;;;;;;;7.89;99.83;99569.78;5073766;28;20249;-76
2023/01/11 06:46:34;;;;;;;0.40;0.40;;;;;;;7.93;100.00;99559.28;5073489;28;20221;-76
2023/01/11 06:49:02;;;;;;;0.53;0.47;;;;;;;7.97;100.00;99552.25;5072460;28;20660;-77
2023/01/11 06:51:29;;;;;;;0.40;0.40;;;;;;;7.89;100.00;99543.78;5073003;28;20201;-77
2023/01/11 06:53:55;;;;;;;0.50;0.50;;;;;;;7.89;100.00;99554.19;5073064;28;20233;-77
2023/01/11 06:56:22;;;;;;;0.50;0.50;;;;;;;7.90;100.00;99548.09;5073583;28;20254;-77
2023/01/11 06:58:49;;;;;;;0.50;0.50;;;;;;;7.81;100.00;99533.56;5073659;28;20201;-77
2023/01/11 07:01:17;;;;;;;0.40;0.40;;;;;;;7.92;100.00;99536.75;5073033;28;20229;-77
2023/01/11 07:03:44;;;;;;;0.30;0.30;;;;;;;7.96;100.00;99541.00;5073272;28;20204;-77
2023/01/11 07:06:12;;;;;;;0.40;0.40;;;;;;;7.96;100.00;99532.34;5073113;28;20268;-77
2023/01/11 07:08:39;;;;;;;0.50;0.50;;;;;;;8.03;100.00;99538.28;5072369;28;20213;-77
2023/01/11 07:11:05;;;;;;;1.07;0.50;;;;;;;8.02;100.00;99550.41;5061078;28;20205;-76
2023/01/11 07:13:32;;;;;;;0.60;0.50;;;;;;;8.00;100.00;99559.13;5056259;28;20201;-77
2023/01/11 07:15:58;;;;;;;0.43;0.40;;;;;;;8.00;100.00;99566.94;5043755;28;20221;-77
2023/01/11 07:18:24;;;;;;;0.67;0.53;;;;;;;8.00;100.00;99569.53;5042360;28;20209;-77
2023/01/11 07:20:51;;;;;;;0.30;0.30;;;;;;;8.07;100.00;99578.91;5041820;28;20616;-77
2023/01/11 07:23:19;;;;;;;0.50;0.50;;;;;;;8.12;100.00;99582.25;5043193;28;20573;-77
2023/01/11 07:25:45;;;;;;;0.53;0.53;;;;;;;8.15;100.00;99575.22;5045436;28;20236;-77
2023/01/11 07:28:11;;;;;;;0.87;0.60;;;;;;;8.26;99.52;99587.13;5046699;28;20247;-77
2023/01/11 07:30:39;;;;;;;1.10;0.53;;;;;;;8.13;99.69;99596.97;5042658;28;20684;-77
2023/01/11 07:33:06;;;;;;;0.60;0.47;;;;;;;8.17;99.55;99593.41;5041651;28;20205;-76
2023/01/11 07:35:32;;;;;;;0.77;0.40;;;;;;;8.17;99.31;99596.00;5045019;28;20283;-77
2023/01/11 07:37:59;;;;;;;1.83;0.50;;;;;;;8.14;99.84;99588.25;5042112;28;20741;-76
2023/01/11 07:40:26;;;;;;;0.40;0.40;;;;;;;8.13;100.00;99583.97;5041349;28;20201;-76
2023/01/11 07:43:13;;;;;;;1.83;0.83;;;;;;;8.21;100.00;99586.38;5042564;28;20910;-77
2023/01/11 07:45:41;;;;;;;0.70;0.70;;;;;;;8.31;99.59;99599.13;5040871;28;20308;-76
2023/01/11 07:48:09;;;;;;;2.07;0.50;;;;;;;8.34;98.93;99609.47;5041446;28;20201;-77
2023/01/11 07:50:37;;;;;;;0.50;0.50;;;;;;;8.36;98.72;99619.81;5042469;28;20203;-76
2023/01/11 07:53:03;;;;;;;0.40;0.40;;;;;;;8.41;98.32;99630.13;5041049;28;20205;-77
2023/01/11 07:55:31;;;;;;;0.30;0.30;;;;;;;8.40;98.82;99618.84;5040754;28;20751;-76
2023/01/11 07:57:57;;;;;;;0.63;0.50;;;;;;;8.41;98.48;99628.41;5046422;28;20216;-77
2023/01/11 08:00:24;;;;;;;0.40;0.40;;;;;;;8.32;98.51;99628.56;5042454;28;20837;-77
2023/01/11 08:02:51;;;;;;;0.70;0.40;;;;;;;8.28;98.89;99613.94;5041715;28;20264;-77
2023/01/11 08:05:18;;;;;;;0.40;0.40;;;;;;;8.33;99.59;99607.75;5047514;28;20236;-77
2023/01/11 08:07:44;;;;;;;1.40;0.50;;;;;;;8.39;99.71;99603.31;5045312;28;20249;-77
2023/01/11 08:10:11;;;;;;;0.40;0.30;;;;;;;8.32;100.00;99600.84;5040941;28;20201;-77
2023/01/11 08:15:28;;;;;;;0.47;0.40;;;;;;;8.32;100.00;99585.25;5045274;28;20229;-76
2023/01/11 08:17:54;;;;;;;0.60;0.33;;;;;;;8.43;100.00;99581.56;5039886;28;20708;-74
2023/01/11 08:20:20;;;;;;;0.57;0.50;;;;;;;8.46;100.00;99581.47;5041281;28;20263;-76
2023/01/11 08:22:47;;;;;;;0.70;0.40;;;;;;;8.49;100.00;99576.22;5040776;28;20586;-76
2023/01/11 08:25:13;;;;;;;0.40;0.20;;;;;;;8.45;100.00;99595.38;5039849;28;20313;-76
2023/01/11 08:27:40;;;;;;;0.83;0.40;;;;;;;8.50;100.00;99597.00;5046827;28;20259;-76
2023/01/11 08:30:09;;;;;;;0.30;0.30;;;;;;;8.47;100.00;99598.81;5040891;28;20777;-76
2023/01/11 08:32:35;;;;;;;0.30;0.30;;;;;;;8.47;100.00;99593.59;5042188;28;20197;-76
2023/01/11 08:35:02;;;;;;;0.40;0.30;;;;;;;8.50;100.00;99606.50;5040106;28;20283;-76
2023/01/11 08:37:28;;;;;;;0.50;0.40;;;;;;;8.50;100.00;99604.78;5040842;28;20201;-76
2023/01/11 08:39:55;;;;;;;0.47;0.47;;;;;;;8.51;100.00;99600.44;5041495;28;20683;-76
2023/01/11 08:42:22;;;;;;;0.40;0.40;;;;;;;8.54;100.00;99592.53;5040494;28;20209;-76
2023/01/11 08:44:48;;;;;;;0.30;0.30;;;;;;;8.54;100.00;99601.22;5040598;28;20224;-76
2023/01/11 08:47:16;;;;;;;0.30;0.30;;;;;;;8.46;100.00;99595.34;5042155;28;20197;-76
2023/01/11 08:49:42;;;;;;;0.40;0.40;;;;;;;8.50;100.00;99606.50;5040248;28;20681;-75
2023/01/11 08:52:11;;;;;;;0.33;0.33;;;;;;;8.57;100.00;99597.69;5040411;28;20218;-76
2023/01/11 08:54:37;;;;;;;0.40;0.40;;;;;;;8.58;100.00;99603.72;5041622;28;20194;-76
2023/01/11 08:57:04;;;;;;;0.30;0.30;;;;;;;8.63;100.00;99599.28;5044738;28;20254;-76
2023/01/11 08:59:30;;;;;;;0.30;0.30;;;;;;;8.67;100.00;99619.13;5042664;28;20209;-76
2023/01/11 09:01:56;;;;;;;0.30;0.30;;;;;;;8.57;100.00;99622.84;5041669;28;20251;-76
2023/01/11 09:04:25;;;;;;;0.30;0.30;;;;;;;8.65;100.00;99629.56;5040177;28;20202;-76
2023/01/11 09:06:52;;;;;;;0.30;0.30;;;;;;;8.69;100.00;99631.19;5040046;28;20304;-76
2023/01/11 09:09:18;;;;;;;0.40;0.37;;;;;;;8.64;100.00;99640.00;5041604;28;20606;-76
2023/01/11 09:11:59;;;;;;;0.20;0.20;;;;;;;8.65;100.00;99642.56;5041249;28;20742;-76
2023/01/11 09:14:26;;;;;;;0.30;0.30;;;;;;;8.64;100.00;99643.47;5044504;28;20221;-76
2023/01/11 09:16:53;;;;;;;0.30;0.30;;;;;;;8.67;100.00;99643.38;5043688;28;20244;-76
2023/01/11 09:19:20;;;;;;;0.40;0.40;;;;;;;8.80;100.00;99643.97;5043315;28;20202;-76
2023/01/11 09:21:48;;;;;;;0.27;0.27;;;;;;;8.81;100.00;99644.81;5043933;28;20615;-76
2023/01/11 09:24:15;;;;;;;0.47;0.37;;;;;;;8.86;100.00;99651.63;5045467;28;20267;-76
2023/01/11 09:26:42;;;;;;;0.20;0.20;;;;;;;8.90;100.00;99647.16;5047224;28;20271;-76
2023/01/11 09:29:08;;;;;;;0.60;0.40;;;;;;;8.84;100.00;99663.81;5046728;28;20198;-76
2023/01/11 09:31:35;;;;;;;0.90;0.40;;;;;;;8.74;100.00;99652.78;5042943;28;20252;-76
2023/01/11 09:34:02;;;;;;;0.30;0.30;;;;;;;8.75;100.00;99651.88;5044598;28;20256;-76
2023/01/11 09:36:30;;;;;;;0.20;0.20;;;;;;;8.79;100.00;99620.56;5044366;28;20236;-76
2023/01/11 09:39:00;;;;;;;0.30;0.30;;;;;;;8.81;100.00;99598.81;5043278;28;20201;-77
2023/01/11 09:41:38;;;;;;;0.30;0.30;;;;;;;8.85;100.00;99595.25;5043961;28;20215;-76
2023/01/11 09:44:13;;;;;;;0.30;0.30;;;;;;;8.71;100.00;99586.94;5045123;28;20262;-77
2023/01/11 09:46:41;;;;;;;0.40;0.40;;;;;;;8.67;100.00;99565.34;5042766;28;20253;-76
2023/01/11 09:49:15;;;;;;;0.40;0.30;;;;;;;8.68;100.00;99556.66;5043795;28;20225;-76
2023/01/11 09:51:42;;;;;;;0.50;0.30;;;;;;;8.70;100.00;99548.78;5043030;28;20240;-76
2023/01/11 09:54:17;;;;;;;0.40;0.40;;;;;;;8.72;100.00;99545.28;5043827;28;20776;-77
2023/01/11 09:56:52;;;;;;;0.40;0.40;;;;;;;8.48;100.00;99545.88;5047655;28;20702;-76
2023/01/11 09:59:25;;;;;;;0.30;0.30;;;;;;;8.55;100.00;99524.88;5045714;28;20212;-76
2023/01/11 10:02:00;;;;;;;2.13;2.03;;;;;;;8.72;100.00;99532.28;5045007;28;20553;-76
2023/01/11 10:04:46;;;;;;;0.30;0.30;;;;;;;8.66;100.00;99524.63;5045489;28;20209;-76
2023/01/11 10:07:34;;;;;;;0.40;0.40;;;;;;;8.63;100.00;99509.09;5046113;28;20198;-76
2023/01/11 10:10:16;;;;;;;0.47;0.33;;;;;;;8.66;100.00;99502.94;5042688;28;20210;-76
2023/01/11 10:12:52;;;;;;;0.50;0.50;;;;;;;8.69;100.00;99513.28;5043274;28;20203;-76
2023/01/11 10:15:26;;;;;;;0.57;0.30;;;;;;;8.61;100.00;99523.03;5042250;28;20223;-76
2023/01/11 10:18:12;;;;;;;0.20;0.20;;;;;;;8.69;100.00;99537.53;5042594;28;20202;-76
2023/01/11 10:20:44;;;;;;;1.00;0.30;;;;;;;8.71;100.00;99542.72;5043839;28;20289;-76
2023/01/11 10:23:15;;;;;;;0.20;0.20;;;;;;;8.77;100.00;99546.91;5042723;28;20201;-76
2023/01/11 10:25:50;;;;;;;1.17;0.40;;;;;;;8.77;100.00;99541.69;5044495;28;20271;-76
2023/01/11 10:28:23;;;;;;;0.83;0.30;;;;;;;8.83;100.00;99542.38;5046119;28;20197;-76
2023/01/11 10:31:06;;;;;;;0.40;0.40;;;;;;;8.89;100.00;99543.97;5042582;28;20197;-76
2023/01/11 10:33:51;;;;;;;0.40;0.40;;;;;;;8.96;100.00;99558.53;5044331;28;20210;-76
2023/01/11 10:36:50;;;;;;;0.47;0.33;;;;;;;8.92;100.00;99551.72;5043890;28;20304;-76
2023/01/11 10:39:38;;;;;;;2.10;0.40;;;;;;;8.92;100.00;99556.91;5044096;28;20205;-76
2023/01/11 10:42:11;;;;;;;0.53;0.40;;;;;;;8.91;100.00;99547.38;5042327;28;20203;-76
2023/01/11 10:44:42;;;;;;;0.40;0.40;;;;;;;8.95;100.00;99554.22;5041753;28;20198;-76
2023/01/11 10:47:15;;;;;;;0.40;0.40;;;;;;;9.00;100.00;99557.56;5042279;28;20237;-76
2023/01/11 10:49:47;;;;;;;0.30;0.30;;;;;;;9.06;100.00;99561.75;5041935;28;20205;-76
2023/01/11 10:52:26;;;;;;;0.27;0.27;;;;;;;9.07;100.00;99553.88;5041600;28;20213;-76
2023/01/11 10:54:56;;;;;;;0.40;0.40;;;;;;;9.08;100.00;99557.38;5043664;28;20256;-76
2023/01/11 10:57:47;;;;;;;0.53;0.50;;;;;;;9.14;100.00;99558.03;5045846;28;20673;-76
2023/01/11 11:00:24;;;;;;;0.30;0.30;;;;;;;9.14;100.00;99565.84;5041572;28;20204;-76
2023/01/11 11:03:06;;;;;;;0.33;0.33;;;;;;;9.21;100.00;99555.25;5043180;28;20198;-76
2023/01/11 11:05:43;;;;;;;0.83;0.33;;;;;;;9.18;100.00;99556.22;5042994;28;20229;-76
2023/01/11 11:08:17;;;;;;;0.50;0.50;;;;;;;9.12;100.00;99569.41;5042876;28;20201;-76
2023/01/11 11:10:51;;;;;;;0.30;0.30;;;;;;;9.08;100.00;99565.19;5041802;28;20202;-76
2023/01/11 11:13:27;;;;;;;0.50;0.50;;;;;;;9.16;100.00;99565.81;5041189;28;20267;-76
2023/01/11 11:16:02;;;;;;;0.40;0.40;;;;;;;9.18;100.00;99564.03;5041393;28;20213;-75
2023/01/11 11:18:28;;;;;;;0.50;0.50;;;;;;;9.21;100.00;99581.31;5042334;28;20206;-75
2023/01/11 11:20:58;;;;;;;0.97;0.47;;;;;;;9.21;100.00;99589.13;5040718;28;20253;-76
2023/01/11 11:23:27;;;;;;;0.60;0.60;;;;;;;9.25;100.00;99581.16;5042405;28;20271;-76
2023/01/11 11:25:57;;;;;;;0.60;0.60;;;;;;;9.20;100.00;99583.06;5044868;28;20323;-76
2023/01/11 11:28:28;;;;;;;0.40;0.40;;;;;;;9.25;100.00;99588.97;5045738;28;20688;-76
2023/01/11 11:30:57;;;;;;;0.53;0.53;;;;;;;9.25;100.00;99583.78;5040439;28;20237;-76
2023/01/11 11:33:25;;;;;;;1.00;0.53;;;;;;;9.28;100.00;99586.31;5042474;28;20262;-76
2023/01/11 11:35:57;;;;;;;0.60;0.60;;;;;;;9.30;100.00;99571.50;5041780;28;20279;-76
2023/01/11 11:38:25;;;;;;;0.53;0.50;;;;;;;9.38;100.00;99573.03;5040810;28;20264;-76
2023/01/11 11:41:03;;;;;;;0.50;0.50;;;;;;;9.32;100.00;99574.91;4345901;28;10000746;-75
2023/01/11 11:43:32;;;;;;;0.40;0.40;;;;;;;9.26;100.00;99580.28;5039077;28;20878;-76
2023/01/11 11:46:00;;;;;;;0.83;0.73;;;;;;;9.31;100.00;99567.97;5042513;28;20229;-75
2023/01/11 11:48:32;;;;;;;0.40;0.40;;;;;;;9.28;100.00;99565.47;5041980;28;20206;-76
2023/01/11 11:51:00;;;;;;;0.73;0.73;;;;;;;9.30;100.00;99561.06;5036797;28;20890;-76
2023/01/11 11:53:34;;;;;;;0.70;0.70;;;;;;;9.27;100.00;99558.53;5038553;28;20238;-75
2023/01/11 11:56:06;;;;;;;0.70;0.70;;;;;;;9.24;100.00;99555.19;5037887;28;20221;-76
2023/01/11 11:58:34;;;;;;;0.60;0.60;;;;;;;9.29;100.00;99550.69;5037934;28;20201;-76
2023/01/11 12:01:01;;;;;;;0.70;0.70;;;;;;;9.33;100.00;99563.56;5037521;28;20703;-75
2023/01/11 12:03:31;;;;;;;0.50;0.50;;;;;;;9.37;100.00;99566.94;5041186;28;20217;-76
2023/01/11 12:06:01;;;;;;;1.60;0.60;;;;;;;9.36;100.00;99570.47;5040341;28;20226;-76
2023/01/11 12:08:30;;;;;;;0.60;0.50;;;;;;;9.34;100.00;99554.03;5038367;28;20255;-76